ケアンズ の空港の天気 - METARとTAF

ケアンズ国際空港 ( YBCS / CNS ) - オーストラリア クイーンズランド州ケアンズ
飛行場実況気象(Metar)
観測時間01/19 07:30 AEST (01/18 21:30 UTC)
風向・風速南南東 5m/s
視程10km以上
天気現象周辺でしゅう雨
少しの雲 雲底高度 760m
全天の8割程度の雲 雲底高度 1680m
気温26℃
湿度79%
気圧1011hPa
METARYBCS 182130Z 16009KT 9999 VCSH FEW025 BKN055 26/22 Q1011 INTER 2200/0030 3000 SHRA BKN018
過去の天気等 Google飛行場航空写真 Wunderground天気予報

過去48時間のMETAR

飛行場予報(TAF)
発表時間: 1/19 06:36 AEST (1/18 20:36 UTC)
予報対象時間: 19日6時 AEST ~ 20日4時 AEST
風向・風速南 4m/s
視程10km以上
天気現象弱いしゅう雨
全天の4割程度の雲 雲底高度 700m
全天の8割程度の雲 雲底高度 1,070m
19日10時 AEST から
風向・風速南東 7m/s
視程10km以上
天気現象弱いしゅう雨
全天の4割程度の雲 雲底高度 850m
全天の8割程度の雲 雲底高度 1,220m
19日18時 AEST から
風向・風速南 4m/s
視程10km以上
天気現象弱いしゅう雨
全天の4割程度の雲 雲底高度 700m
全天の8割程度の雲 雲底高度 1,070m
TAF AMD YBCS 182036Z 1820/1918 17008KT 9999 -SHRA SCT023 BKN035
FM190000 13014KT 9999 -SHRA SCT028 BKN040
FM190800 17008KT 9999 -SHRA SCT023 BKN035 INTER 1821/1918 3000 SHRA BKN018